createdAt,value
2019-01-03T00:02:01.273Z,103290.11
2019-01-03T00:04:48.818Z,103283.66
2019-01-03T00:07:52.662Z,103286.23
2019-01-03T00:10:56.639Z,103277.19
2019-01-03T00:13:48.362Z,103276.77
2019-01-03T00:16:35.570Z,103274.20
2019-01-03T00:19:30.285Z,103277.20
2019-01-03T00:22:16.993Z,103274.64
2019-01-03T00:25:05.705Z,103278.06
2019-01-03T00:28:01.389Z,103276.34
2019-01-03T00:30:53.695Z,103272.05
2019-01-03T00:34:01.345Z,103272.04
2019-01-03T00:37:05.038Z,103273.78
2019-01-03T00:40:11.767Z,103276.38
2019-01-03T00:43:00.553Z,103286.29
2019-01-03T00:45:55.240Z,103278.95
2019-01-03T00:48:44.184Z,103278.08
2019-01-03T00:51:31.800Z,103281.53
2019-01-03T00:54:19.440Z,103284.13
2019-01-03T00:57:06.583Z,103297.05
2019-01-03T00:59:53.718Z,103297.05
2019-01-03T01:02:51.965Z,103306.12
2019-01-03T01:05:39.320Z,103311.27
2019-01-03T01:08:34.472Z,103319.03
2019-01-03T01:11:22.548Z,103319.92
2019-01-03T01:14:19.714Z,103326.38
2019-01-03T01:17:17.542Z,103328.55
2019-01-03T01:20:01.485Z,103333.70
2019-01-03T01:22:53.010Z,103326.38
2019-01-03T01:25:42.348Z,103330.28
2019-01-03T01:28:25.353Z,103338.02
2019-01-03T01:31:25.969Z,103328.11
2019-01-03T01:34:11.637Z,103329.39
2019-01-03T01:36:58.895Z,103329.40
2019-01-03T01:39:50.621Z,103334.58
2019-01-03T01:42:38.200Z,103328.98
2019-01-03T01:45:21.115Z,103330.27
2019-01-03T01:48:08.246Z,103335.45
2019-01-03T01:50:56.343Z,103335.86
2019-01-03T01:53:43.726Z,103335.45
2019-01-03T01:56:32.432Z,103337.16
2019-01-03T01:59:31.091Z,103334.59
2019-01-03T02:02:18.234Z,103340.62
2019-01-03T02:05:09.784Z,103331.57
2019-01-03T02:07:58.632Z,103331.57
2019-01-03T02:11:01.122Z,103331.14
2019-01-03T02:13:48.550Z,103334.59
2019-01-03T02:16:44.301Z,103336.75
2019-01-03T02:19:39.007Z,103337.63
2019-01-03T02:22:26.421Z,103330.30
2019-01-03T02:25:14.110Z,103327.27
2019-01-03T02:27:55.491Z,103335.02
2019-01-03T02:30:39.032Z,103328.56
2019-01-03T02:33:26.114Z,103331.58
2019-01-03T02:36:13.609Z,103327.25
2019-01-03T02:39:00.989Z,103313.03
2019-01-03T02:42:09.408Z,103311.30
2019-01-03T02:45:03.472Z,103307.84
2019-01-03T02:47:51.085Z,103313.44
2019-01-03T02:50:37.931Z,103305.69
2019-01-03T02:53:41.801Z,103303.55
2019-01-03T02:56:28.180Z,103305.26
2019-01-03T02:59:21.379Z,103304.41
2019-01-03T03:02:11.397Z,103311.72
2019-01-03T03:05:10.884Z,103306.98
2019-01-03T03:08:05.341Z,103303.98
2019-01-03T03:10:52.706Z,103302.67
2019-01-03T03:13:37.124Z,103304.41
2019-01-03T03:16:25.818Z,103303.12
2019-01-03T03:19:05.627Z,103300.53
2019-01-03T03:21:54.303Z,103300.93
2019-01-03T03:24:57.957Z,103298.80
2019-01-03T03:27:40.897Z,103297.51
2019-01-03T03:30:44.339Z,103297.92
2019-01-03T03:33:48.092Z,103303.12
2019-01-03T03:36:45.571Z,103308.30
2019-01-03T03:39:40.680Z,103305.70
2019-01-03T03:42:35.533Z,103304.83
2019-01-03T03:45:17.495Z,103308.27
2019-01-03T03:47:58.411Z,103310.42
2019-01-03T03:50:45.823Z,103308.28
2019-01-03T03:53:39.126Z,103297.94
2019-01-03T03:56:21.681Z,103301.81
2019-01-03T03:59:08.962Z,103296.63
2019-01-03T04:02:02.541Z,103297.94
2019-01-03T04:04:56.994Z,103296.63
2019-01-03T04:07:37.859Z,103299.23
2019-01-03T04:10:25.187Z,103300.53
2019-01-03T04:13:13.893Z,103305.69
2019-01-03T04:16:04.628Z,103300.95
2019-01-03T04:18:53.275Z,103300.09
2019-01-03T04:21:48.010Z,103298.78
2019-01-03T04:24:30.912Z,103293.60
2019-01-03T04:27:28.770Z,103290.16
2019-01-03T04:30:23.828Z,103291.00
2019-01-03T04:33:11.995Z,103290.14
2019-01-03T04:36:15.815Z,103299.61
2019-01-03T04:39:02.537Z,103295.73
2019-01-03T04:42:00.301Z,103296.16
2019-01-03T04:44:42.781Z,103291.83
2019-01-03T04:47:36.423Z,103296.13
2019-01-03T04:50:23.820Z,103297.02
2019-01-03T04:53:11.217Z,103294.41
2019-01-03T04:55:58.383Z,103294.83
2019-01-03T04:58:39.269Z,103280.62
2019-01-03T05:02:02.657Z,103279.31
2019-01-03T05:04:49.915Z,103284.94
2019-01-03T05:07:42.764Z,103286.23
2019-01-03T05:10:23.680Z,103282.33
2019-01-03T05:13:21.440Z,103289.66
2019-01-03T05:16:10.147Z,103293.98
2019-01-03T05:18:57.436Z,103295.27
2019-01-03T05:21:44.576Z,103299.17
2019-01-03T05:24:31.657Z,103300.01
2019-01-03T05:27:34.257Z,103299.14
2019-01-03T05:30:36.037Z,103297.44
2019-01-03T05:33:27.551Z,103299.59
2019-01-03T05:36:14.927Z,103306.90
2019-01-03T05:39:13.965Z,103305.63
2019-01-03T05:41:51.740Z,103301.71
2019-01-03T05:44:35.898Z,103301.75
2019-01-03T05:47:24.604Z,103300.48
2019-01-03T05:50:13.291Z,103299.62
2019-01-03T05:52:55.261Z,103303.93
2019-01-03T05:55:49.727Z,103301.75
2019-01-03T05:58:44.244Z,103297.41
2019-01-03T06:01:38.824Z,103301.72
2019-01-03T06:04:34.615Z,103298.27
2019-01-03T06:07:30.031Z,103305.63
2019-01-03T06:10:17.391Z,103293.11
2019-01-03T06:13:12.161Z,103285.77
2019-01-03T06:16:06.166Z,103290.09
2019-01-03T06:19:12.867Z,103305.63
2019-01-03T06:22:01.625Z,103303.47
2019-01-03T06:24:44.935Z,103297.87
2019-01-03T06:27:32.314Z,103298.72
2019-01-03T06:30:20.043Z,103308.22
2019-01-03T06:36:04.483Z,103303.45
2019-01-03T06:38:47.483Z,103300.87
2019-01-03T06:41:33.913Z,103303.88
2019-01-03T06:44:34.466Z,103305.17
2019-01-03T06:47:29.865Z,103306.05
2019-01-03T06:50:26.302Z,103309.92
2019-01-03T06:53:21.029Z,103307.33
2019-01-03T06:56:09.733Z,103315.95
2019-01-03T06:58:56.635Z,103306.03
2019-01-03T07:01:33.599Z,103309.06
2019-01-03T07:04:22.544Z,103303.03
2019-01-03T07:07:10.076Z,103307.76
2019-01-03T07:10:10.867Z,103310.77
2019-01-03T07:13:05.366Z,103312.48
2019-01-03T07:16:01.284Z,103315.51
2019-01-03T07:18:48.366Z,103321.52
2019-01-03T07:21:37.323Z,103312.08
2019-01-03T07:24:36.371Z,103318.09
2019-01-03T07:27:37.248Z,103320.25
2019-01-03T07:30:38.166Z,103321.13
2019-01-03T07:33:25.356Z,103328.42
2019-01-03T07:36:24.551Z,103336.61
2019-01-03T07:39:27.324Z,103334.05
2019-01-03T07:42:24.511Z,103343.52
2019-01-03T07:45:12.331Z,103345.26
2019-01-03T07:48:02.896Z,103347.83
2019-01-03T07:50:50.413Z,103352.17
2019-01-03T07:53:37.720Z,103355.20
2019-01-03T07:56:25.147Z,103354.34
2019-01-03T07:59:12.469Z,103353.48
2019-01-03T08:02:01.179Z,103354.77
2019-01-03T08:04:57.528Z,103347.46
2019-01-03T08:07:55.412Z,103353.47
2019-01-03T08:10:42.676Z,103353.06
2019-01-03T08:13:29.826Z,103356.94
2019-01-03T08:16:26.764Z,103353.45
2019-01-03T08:19:13.950Z,103350.44
2019-01-03T08:22:06.380Z,103356.48
2019-01-03T08:24:55.083Z,103365.09
2019-01-03T08:27:41.377Z,103370.70
2019-01-03T08:30:30.155Z,103368.98
2019-01-03T08:33:17.602Z,103379.30
2019-01-03T08:36:12.239Z,103379.75
2019-01-03T08:38:59.337Z,103376.72
2019-01-03T08:42:02.977Z,103373.72
2019-01-03T08:44:50.575Z,103381.89
2019-01-03T08:47:44.403Z,103374.61
2019-01-03T08:50:26.331Z,103378.48
2019-01-03T08:53:29.453Z,103384.10
2019-01-03T08:56:33.348Z,103386.69
2019-01-03T08:59:19.559Z,103391.85
2019-01-03T09:02:03.892Z,103396.21
2019-01-03T09:04:52.855Z,103404.39
2019-01-03T09:07:39.991Z,103402.25
2019-01-03T09:10:28.771Z,103398.36
2019-01-03T09:13:11.241Z,103399.21
2019-01-03T09:15:58.214Z,103396.64
2019-01-03T09:18:49.667Z,103406.55
2019-01-03T09:21:37.049Z,103394.05
2019-01-03T09:24:27.329Z,103403.97
2019-01-03T09:27:17.296Z,103394.93
2019-01-03T09:30:01.684Z,103390.63
2019-01-03T09:32:48.885Z,103390.20
2019-01-03T09:35:36.393Z,103395.39
2019-01-03T09:38:37.125Z,103398.84
2019-01-03T09:41:43.733Z,103388.48
2019-01-03T09:44:26.810Z,103393.67
2019-01-03T09:46:56.474Z,103396.69
2019-01-03T09:49:26.363Z,103398.00
2019-01-03T09:51:56.086Z,103398.00
2019-01-03T09:54:26.020Z,103400.61
2019-01-03T09:56:59.158Z,103395.86
2019-01-03T09:59:28.937Z,103395.40
2019-01-03T10:01:58.582Z,103391.09
2019-01-03T10:04:28.334Z,103387.67
2019-01-03T10:06:57.975Z,103382.06
2019-01-03T10:09:27.634Z,103385.09
2019-01-03T10:11:57.371Z,103376.95
2019-01-03T10:14:27.039Z,103376.51
2019-01-03T10:16:56.708Z,103385.55
2019-01-03T10:19:26.443Z,103388.17
2019-01-03T10:21:56.186Z,103388.16
2019-01-03T10:24:25.858Z,103383.84
2019-01-03T10:26:55.532Z,103378.67
2019-01-03T10:29:25.195Z,103376.10
2019-01-03T10:31:54.857Z,103378.24
2019-01-03T10:34:24.525Z,103378.23
2019-01-03T10:36:54.254Z,103382.58
2019-01-03T10:39:23.915Z,103376.95
2019-01-03T10:41:53.587Z,103371.34
2019-01-03T10:44:23.234Z,103366.58
2019-01-03T10:46:52.989Z,103371.31
2019-01-03T10:49:22.889Z,103372.20
2019-01-03T10:51:53.602Z,103367.89
2019-01-03T10:54:23.246Z,103362.67
2019-01-03T10:56:52.918Z,103355.34
2019-01-03T10:59:22.991Z,103361.39
2019-01-03T11:01:52.652Z,103355.76
2019-01-03T11:04:22.313Z,103353.61
2019-01-03T11:06:52.216Z,103356.64
2019-01-03T11:09:21.882Z,103355.33
2019-01-03T11:11:51.542Z,103358.36
2019-01-03T11:14:21.276Z,103348.84
2019-01-03T11:16:50.893Z,103357.49
2019-01-03T11:19:20.606Z,103359.20
2019-01-03T11:21:50.217Z,103360.93
2019-01-03T11:24:19.879Z,103355.76
2019-01-03T11:26:49.540Z,103352.29
2019-01-03T11:29:19.207Z,103346.25
2019-01-03T11:31:49.119Z,103347.97
2019-01-03T11:34:18.799Z,103341.47
2019-01-03T11:36:48.454Z,103340.17
2019-01-03T11:39:18.111Z,103348.40
2019-01-03T11:41:47.772Z,103338.00
2019-01-03T11:44:18.527Z,103338.00
2019-01-03T11:46:48.178Z,103330.22
2019-01-03T11:49:17.849Z,103326.33
2019-01-03T11:51:47.741Z,103329.78
2019-01-03T11:54:17.421Z,103331.91
2019-01-03T11:56:47.084Z,103335.39
2019-01-03T11:59:16.993Z,103329.80
2019-01-03T12:01:46.659Z,103328.05
2019-01-03T12:04:16.327Z,103328.50
2019-01-03T12:06:46.008Z,103329.36
2019-01-03T12:09:15.667Z,103331.91
2019-01-03T12:11:45.334Z,103329.78
2019-01-03T12:14:14.996Z,103328.92
2019-01-03T12:16:44.911Z,103332.37
2019-01-03T12:19:14.576Z,103329.75
2019-01-03T12:21:45.498Z,103331.03
2019-01-03T12:24:15.255Z,103334.48
2019-01-03T12:26:45.167Z,103319.36
2019-01-03T12:29:14.841Z,103316.84
2019-01-03T12:31:44.510Z,103315.06
2019-01-03T12:34:14.186Z,103312.91
2019-01-03T12:36:43.860Z,103316.34
2019-01-03T12:39:13.531Z,103317.16
2019-01-03T12:41:43.187Z,103319.34
2019-01-03T12:44:12.836Z,103315.45
2019-01-03T12:46:42.504Z,103319.77
2019-01-03T12:49:12.155Z,103318.00
2019-01-03T12:51:42.134Z,103324.49
2019-01-03T12:54:11.836Z,103325.78
2019-01-03T12:56:42.477Z,103330.93
2019-01-03T12:59:12.166Z,103332.64
2019-01-03T13:01:41.818Z,103325.68
2019-01-03T13:04:11.486Z,103333.03
2019-01-03T13:06:41.146Z,103328.72
2019-01-03T13:09:17.161Z,103318.75
2019-01-03T13:11:47.370Z,103321.34
2019-01-03T13:14:17.115Z,103321.79
2019-01-03T13:16:46.810Z,103310.16
2019-01-03T13:19:17.115Z,103312.30
2019-01-03T13:21:46.779Z,103309.77
2019-01-03T13:24:16.455Z,103315.78
2019-01-03T13:26:46.115Z,103306.70
2019-01-03T13:29:15.791Z,103301.53
2019-01-03T13:31:45.482Z,103302.39
2019-01-03T13:34:15.158Z,103306.67
2019-01-03T13:36:49.633Z,103302.34
2019-01-03T13:39:19.539Z,103305.34
2019-01-03T13:41:49.218Z,103307.94
2019-01-03T13:44:18.882Z,103313.94
2019-01-03T13:46:48.530Z,103316.11
2019-01-03T13:49:18.284Z,103307.87
2019-01-03T13:51:47.946Z,103308.75
2019-01-03T13:54:17.606Z,103309.62
2019-01-03T13:56:47.284Z,103303.54
2019-01-03T13:59:16.940Z,103303.08
2019-01-03T14:01:47.583Z,103300.52
2019-01-03T14:04:17.243Z,103310.05
2019-01-03T14:06:46.911Z,103305.78
2019-01-03T14:09:16.586Z,103307.52
2019-01-03T14:11:46.245Z,103302.36
2019-01-03T14:14:16.002Z,103305.38
2019-01-03T14:16:45.735Z,103312.71
2019-01-03T14:19:15.394Z,103309.27
2019-01-03T14:21:45.053Z,103314.47
2019-01-03T14:24:14.703Z,103313.16
2019-01-03T14:26:44.355Z,103319.62
2019-01-03T14:29:14.017Z,103318.31
2019-01-03T14:31:44.081Z,103323.50
2019-01-03T14:34:13.721Z,103324.35
2019-01-03T14:36:43.380Z,103323.50
2019-01-03T14:39:13.043Z,103329.55
2019-01-03T14:41:42.706Z,103335.22
2019-01-03T14:44:12.444Z,103335.23
2019-01-03T14:46:42.110Z,103333.97
2019-01-03T14:49:11.789Z,103332.22
2019-01-03T14:51:41.491Z,103333.12
2019-01-03T14:54:11.401Z,103336.16
2019-01-03T14:56:41.062Z,103341.77
2019-01-03T14:59:10.722Z,103338.30
2019-01-03T15:01:40.642Z,103345.22
2019-01-03T15:04:10.309Z,103344.80
2019-01-03T15:06:39.986Z,103353.86
2019-01-03T15:09:09.656Z,103355.56
2019-01-03T15:11:39.329Z,103355.16
2019-01-03T15:14:08.994Z,103350.84
2019-01-03T15:16:38.663Z,103355.61
2019-01-03T15:19:08.331Z,103356.91
2019-01-03T15:21:38.000Z,103355.62
2019-01-03T15:24:07.659Z,103359.09
2019-01-03T15:26:37.564Z,103358.23
2019-01-03T15:29:07.481Z,103353.06
2019-01-03T15:31:37.142Z,103358.70
2019-01-03T15:34:06.808Z,103363.02
2019-01-03T15:36:36.468Z,103364.31
2019-01-03T15:39:06.496Z,103369.95
2019-01-03T15:41:36.443Z,103369.95
2019-01-03T15:44:06.106Z,103366.94
2019-01-03T15:46:35.767Z,103366.95
2019-01-03T15:49:05.429Z,103371.25
2019-01-03T15:51:35.137Z,103377.30
2019-01-03T15:54:05.499Z,103377.30
2019-01-03T15:56:35.167Z,103382.07
2019-01-03T15:59:05.097Z,103381.19
2019-01-03T16:01:34.777Z,103371.69
2019-01-03T16:04:04.438Z,103375.57
2019-01-03T16:06:34.109Z,103366.94
2019-01-03T16:09:05.475Z,103369.09
2019-01-03T16:11:35.203Z,103366.94
2019-01-03T16:14:05.098Z,103374.28
2019-01-03T16:16:34.840Z,103377.31
2019-01-03T16:19:05.455Z,103376.43
2019-01-03T16:21:35.120Z,103370.41
2019-01-03T16:24:05.412Z,103376.45
2019-01-03T16:26:35.124Z,103378.19
2019-01-03T16:29:05.722Z,103379.91
2019-01-03T16:34:19.955Z,103373.02
2019-01-03T16:36:49.653Z,103367.83
2019-01-03T16:39:19.397Z,103372.14
2019-01-03T16:41:49.083Z,103376.05
2019-01-03T16:44:18.752Z,103379.49
2019-01-03T16:46:48.420Z,103382.09
2019-01-03T16:49:18.091Z,103387.69
2019-01-03T16:51:47.845Z,103384.67
2019-01-03T16:54:17.522Z,103379.50
2019-01-03T16:56:47.207Z,103382.53
2019-01-03T16:59:16.876Z,103389.89
2019-01-03T17:01:46.616Z,103387.73
2019-01-03T17:04:16.541Z,103388.59
2019-01-03T17:06:46.231Z,103389.03
2019-01-03T17:09:15.921Z,103394.20
2019-01-03T17:11:45.596Z,103393.77
2019-01-03T17:14:15.259Z,103400.66
2019-01-03T17:16:45.507Z,103396.77
2019-01-03T17:19:22.360Z,103402.41
2019-01-03T17:21:52.047Z,103402.38
2019-01-03T17:24:21.714Z,103390.73
2019-01-03T17:26:51.385Z,103395.47
2019-01-03T17:29:21.052Z,103389.00
2019-01-03T17:31:50.962Z,103387.28
2019-01-03T17:34:20.644Z,103393.31
2019-01-03T17:36:51.965Z,103390.31
2019-01-03T17:39:21.609Z,103394.19
2019-01-03T17:41:51.298Z,103381.28
2019-01-03T17:44:21.014Z,103378.25
2019-01-03T17:46:50.735Z,103378.69
2019-01-03T17:49:20.402Z,103383.86
2019-01-03T17:51:50.145Z,103388.61
2019-01-03T17:54:23.109Z,103397.24
2019-01-03T17:56:52.953Z,103392.92
2019-01-03T17:59:22.627Z,103387.30
2019-01-03T18:01:52.388Z,103372.63
2019-01-03T18:04:22.062Z,103368.76
2019-01-03T18:06:51.989Z,103364.02
2019-01-03T18:09:22.962Z,103370.48
2019-01-03T18:11:52.712Z,103368.33
2019-01-03T18:14:22.379Z,103372.20
2019-01-03T18:16:52.272Z,103370.05
2019-01-03T18:19:21.930Z,103379.52
2019-01-03T18:21:51.603Z,103380.81
2019-01-03T18:24:21.271Z,103375.64
2019-01-03T18:26:52.967Z,103377.80
2019-01-03T18:29:22.628Z,103368.31
2019-01-03T18:31:56.719Z,103373.45
2019-01-03T18:34:26.374Z,103369.55
2019-01-03T18:36:56.080Z,103370.84
2019-01-03T18:39:25.709Z,103375.58
2019-01-03T18:41:55.623Z,103378.59
2019-01-03T18:44:25.309Z,103390.23
2019-01-03T18:46:54.984Z,103385.91
2019-01-03T18:49:24.920Z,103385.92
2019-01-03T18:51:54.592Z,103384.59
2019-01-03T18:54:25.524Z,103397.09
2019-01-03T18:56:55.210Z,103400.93
2019-01-03T18:59:26.022Z,103404.39
2019-01-03T19:01:55.708Z,103406.10
2019-01-03T19:04:27.138Z,103413.86
2019-01-03T19:06:56.811Z,103414.26
2019-01-03T19:09:26.477Z,103425.02
2019-01-03T19:11:56.187Z,103424.63
2019-01-03T19:14:25.860Z,103421.14
2019-01-03T19:16:55.524Z,103421.14
2019-01-03T19:19:25.192Z,103421.54
2019-01-03T19:21:54.851Z,103410.33
2019-01-03T19:24:24.527Z,103412.49
2019-01-03T19:26:55.556Z,103418.06
2019-01-03T19:29:25.234Z,103413.31
2019-01-03T19:31:54.907Z,103418.45
2019-01-03T19:34:26.643Z,103417.99
2019-01-03T19:36:56.331Z,103420.58
2019-01-03T19:39:26.025Z,103426.16
2019-01-03T19:41:55.703Z,103429.13
2019-01-03T19:44:25.400Z,103427.00
2019-01-03T19:46:55.290Z,103428.27
2019-01-03T19:49:24.994Z,103430.42
2019-01-03T19:51:54.669Z,103419.17
2019-01-03T19:54:24.844Z,103417.88
2019-01-03T19:56:54.524Z,103411.81
2019-01-03T19:59:24.198Z,103405.72
2019-01-03T20:01:53.881Z,103405.72
2019-01-03T20:04:24.066Z,103417.39
2019-01-03T20:06:53.748Z,103415.22
2019-01-03T20:09:23.488Z,103415.64
2019-01-03T20:11:54.841Z,103412.64
2019-01-03T20:14:24.505Z,103423.34
2019-01-03T20:16:54.183Z,103424.64
2019-01-03T20:19:30.887Z,103426.34
2019-01-03T20:22:00.561Z,103423.34
2019-01-03T20:24:31.885Z,103422.92
2019-01-03T20:27:03.684Z,103426.76
2019-01-03T20:29:39.279Z,103424.17
2019-01-03T20:32:10.501Z,103419.84
2019-01-03T20:34:41.268Z,103422.42
2019-01-03T20:37:11.036Z,103425.42
2019-01-03T20:39:40.734Z,103415.47
2019-01-03T20:42:10.404Z,103413.30
2019-01-03T20:44:40.709Z,103421.05
2019-01-03T20:47:14.145Z,103424.92
2019-01-03T20:49:47.358Z,103429.62
2019-01-03T20:52:17.030Z,103431.78
2019-01-03T20:54:46.712Z,103432.66
2019-01-03T20:57:16.539Z,103436.48
2019-01-03T20:59:46.528Z,103435.19
2019-01-03T21:02:16.445Z,103440.77
2019-01-03T21:04:46.205Z,103437.72
2019-01-03T21:07:15.888Z,103431.69
2019-01-03T21:09:45.568Z,103429.09
2019-01-03T21:12:15.271Z,103432.09
2019-01-03T21:14:45.077Z,103426.88
2019-01-03T21:17:14.827Z,103437.67
2019-01-03T21:19:44.490Z,103435.08
2019-01-03T21:22:14.466Z,103433.37
2019-01-03T21:24:44.224Z,103438.55
2019-01-03T21:27:13.966Z,103437.30
2019-01-03T21:29:43.713Z,103433.44
2019-01-03T21:32:13.462Z,103435.14
2019-01-03T21:34:43.132Z,103431.73
2019-01-03T21:37:12.809Z,103436.48
2019-01-03T21:39:42.461Z,103435.60
2019-01-03T21:42:12.138Z,103437.31
2019-01-03T21:44:41.812Z,103440.30
2019-01-03T21:47:11.625Z,103436.85
2019-01-03T21:49:41.293Z,103436.84
2019-01-03T21:52:11.049Z,103438.55
2019-01-03T21:54:40.968Z,103436.37
2019-01-03T21:57:10.632Z,103441.08
2019-01-03T21:59:40.790Z,103438.08
2019-01-03T22:02:10.723Z,103445.81
2019-01-03T22:04:40.373Z,103431.62
2019-01-03T22:07:10.061Z,103428.17
2019-01-03T22:09:39.762Z,103424.34
2019-01-03T22:12:09.446Z,103418.27
2019-01-03T22:14:39.126Z,103418.72
2019-01-03T22:17:08.805Z,103409.27
2019-01-03T22:19:38.718Z,103409.23
2019-01-03T22:22:08.388Z,103420.84
2019-01-03T22:24:38.069Z,103417.84
2019-01-03T22:27:07.988Z,103420.89
2019-01-03T22:29:37.681Z,103411.84
2019-01-03T22:32:07.368Z,103415.72
2019-01-03T22:34:37.057Z,103406.64
2019-01-03T22:37:06.747Z,103404.11
2019-01-03T22:39:36.415Z,103403.23
2019-01-03T22:42:06.157Z,103404.93
2019-01-03T22:44:36.079Z,103398.44
2019-01-03T22:47:05.753Z,103391.10
2019-01-03T22:49:35.444Z,103392.44
2019-01-03T22:52:05.372Z,103391.98
2019-01-03T22:54:35.115Z,103388.16
2019-01-03T22:57:05.332Z,103389.86
2019-01-03T22:59:35.008Z,103385.53
2019-01-03T23:02:05.322Z,103385.53
2019-01-03T23:04:35.143Z,103385.11
2019-01-03T23:07:05.262Z,103382.95
2019-01-03T23:09:35.185Z,103385.94
2019-01-03T23:12:05.507Z,103382.89
2019-01-03T23:14:35.249Z,103383.72
2019-01-03T23:17:05.417Z,103391.83
2019-01-03T23:19:35.089Z,103395.27
2019-01-03T23:22:05.195Z,103395.63
2019-01-03T23:24:34.859Z,103401.19
2019-01-03T23:27:04.537Z,103395.57
2019-01-03T23:29:35.500Z,103407.16
2019-01-03T23:32:05.933Z,103407.12
2019-01-03T23:34:35.600Z,103400.66
2019-01-03T23:37:05.583Z,103398.08
2019-01-03T23:39:35.252Z,103398.06
2019-01-03T23:42:05.527Z,103403.23
2019-01-03T23:44:35.208Z,103393.33
2019-01-03T23:47:05.371Z,103388.17
2019-01-03T23:49:35.061Z,103385.58
2019-01-03T23:52:05.219Z,103377.84
2019-01-03T23:54:35.852Z,103382.08
2019-01-03T23:57:05.502Z,103395.83
2019-01-03T23:59:35.188Z,103389.28
